createdAt,value
2022-11-06T00:02:59.966Z,1.80
2022-11-06T00:08:04.868Z,1.90
2022-11-06T00:13:08.124Z,1.80
2022-11-06T00:18:11.587Z,1.70
2022-11-06T00:23:16.338Z,1.80
2022-11-06T00:28:26.089Z,1.70
2022-11-06T00:33:29.304Z,1.70
2022-11-06T00:38:34.094Z,1.70
2022-11-06T00:43:41.006Z,1.70
2022-11-06T00:48:44.403Z,1.70
2022-11-06T00:53:58.055Z,1.70
2022-11-06T00:59:05.871Z,1.60
2022-11-06T01:04:14.661Z,1.40
2022-11-06T01:09:22.300Z,1.40
2022-11-06T01:14:27.173Z,1.60
2022-11-06T01:19:30.469Z,1.80
2022-11-06T01:24:35.183Z,1.90
2022-11-06T01:29:39.013Z,2.00
2022-11-06T01:34:42.350Z,2.00
2022-11-06T01:39:46.936Z,2.00
2022-11-06T01:45:27.178Z,2.00
2022-11-06T01:50:30.595Z,1.90
2022-11-06T01:55:39.573Z,1.90
2022-11-06T02:00:43.432Z,1.90
2022-11-06T02:05:47.125Z,1.90
2022-11-06T02:10:55.195Z,1.90
2022-11-06T02:16:10.081Z,1.80
2022-11-06T02:21:41.979Z,1.80
2022-11-06T02:27:01.882Z,1.90
2022-11-06T02:32:09.737Z,2.00
2022-11-06T02:37:16.758Z,2.00
2022-11-06T02:42:23.305Z,1.90
2022-11-06T02:47:32.427Z,1.70
2022-11-06T02:52:41.265Z,1.50
2022-11-06T02:57:49.979Z,1.40
2022-11-06T03:02:58.918Z,1.20
2022-11-06T03:08:10.603Z,1.10
2022-11-06T03:13:19.633Z,0.90
2022-11-06T03:18:31.305Z,0.80
2022-11-06T03:23:39.492Z,0.70
2022-11-06T03:28:52.879Z,0.50
2022-11-06T03:33:59.405Z,0.50
2022-11-06T03:39:06.604Z,0.40
2022-11-06T03:44:15.796Z,0.30
2022-11-06T03:49:26.404Z,0.20
2022-11-06T03:54:35.698Z,0.10
2022-11-06T03:59:45.539Z,0.10
2022-11-06T04:04:53.011Z,0.10
2022-11-06T04:10:20.272Z,0.10
2022-11-06T04:15:26.209Z,0.10
2022-11-06T04:21:04.837Z,0.20
2022-11-06T04:26:39.263Z,0.30
2022-11-06T04:31:54.018Z,0.20
2022-11-06T04:37:05.654Z,0.00
2022-11-06T04:42:20.441Z,0.00
2022-11-06T04:47:37.653Z,-0.10
2022-11-06T04:52:46.435Z,-0.10
2022-11-06T04:57:56.756Z,-0.10
2022-11-06T05:03:04.870Z,-0.10
2022-11-06T05:08:08.317Z,0.10
2022-11-06T05:13:14.328Z,0.20
2022-11-06T05:18:19.040Z,0.40
2022-11-06T05:23:22.893Z,0.50
2022-11-06T05:28:27.421Z,0.60
2022-11-06T05:33:35.274Z,0.60
2022-11-06T05:38:38.622Z,0.70
2022-11-06T05:43:44.951Z,0.60
2022-11-06T05:48:51.241Z,0.60
2022-11-06T05:53:57.485Z,0.70
2022-11-06T05:59:01.004Z,0.60
2022-11-06T06:04:05.784Z,0.60
2022-11-06T06:09:08.980Z,0.50
2022-11-06T06:14:12.289Z,0.60
2022-11-06T06:19:16.984Z,0.60
2022-11-06T06:24:20.242Z,0.70
2022-11-06T06:29:23.605Z,0.60
2022-11-06T06:34:28.191Z,0.60
2022-11-06T06:39:31.696Z,0.70
2022-11-06T06:44:34.962Z,0.80
2022-11-06T06:49:39.619Z,0.80
2022-11-06T06:54:42.875Z,0.90
2022-11-06T06:59:46.142Z,0.90
2022-11-06T07:04:50.820Z,0.90
2022-11-06T07:09:54.024Z,1.00
2022-11-06T07:14:57.252Z,1.10
2022-11-06T07:20:02.056Z,1.10
2022-11-06T07:25:06.170Z,1.10
2022-11-06T07:30:10.382Z,1.10
2022-11-06T07:35:15.096Z,1.30
2022-11-06T07:40:18.523Z,1.40
2022-11-06T07:45:22.529Z,1.50
2022-11-06T07:50:27.772Z,1.60
2022-11-06T07:55:31.045Z,1.90
2022-11-06T08:00:34.394Z,2.20
2022-11-06T08:05:39.138Z,2.50
2022-11-06T08:10:43.827Z,2.70
2022-11-06T08:15:47.088Z,3.00
2022-11-06T08:20:54.465Z,3.30
2022-11-06T08:25:59.125Z,3.60
2022-11-06T08:31:06.362Z,4.00
2022-11-06T08:36:11.757Z,4.30
2022-11-06T08:41:15.270Z,4.20
2022-11-06T08:46:18.528Z,4.40
2022-11-06T08:51:23.181Z,4.60
2022-11-06T08:56:26.415Z,4.70
2022-11-06T09:01:29.674Z,4.60
2022-11-06T09:06:34.409Z,4.70
2022-11-06T09:11:39.041Z,4.90
2022-11-06T09:16:42.289Z,4.90
2022-11-06T09:21:54.574Z,4.90
2022-11-06T09:26:58.205Z,5.00
2022-11-06T09:32:01.436Z,5.20
2022-11-06T09:37:06.046Z,5.10
2022-11-06T09:42:21.472Z,5.00
2022-11-06T09:47:31.024Z,4.90
2022-11-06T09:52:40.824Z,5.20
2022-11-06T09:57:47.897Z,5.20
2022-11-06T10:02:53.869Z,5.20
2022-11-06T10:08:00.823Z,5.20
2022-11-06T10:13:17.748Z,5.30
2022-11-06T10:18:29.933Z,5.20
2022-11-06T10:23:45.709Z,5.50
2022-11-06T10:29:04.376Z,5.70
2022-11-06T10:34:11.894Z,5.90
2022-11-06T10:39:20.648Z,5.90
2022-11-06T10:44:28.752Z,5.90
2022-11-06T10:49:39.534Z,6.10
2022-11-06T10:54:55.528Z,5.80
2022-11-06T10:59:59.258Z,5.40
2022-11-06T11:05:02.780Z,5.80
2022-11-06T11:15:43.807Z,6.10
2022-11-06T11:20:48.813Z,6.40
2022-11-06T11:25:54.195Z,7.00
2022-11-06T11:31:07.248Z,7.50
2022-11-06T11:36:11.705Z,7.60
2022-11-06T11:41:25.196Z,7.70
2022-11-06T11:46:32.257Z,7.70
2022-11-06T11:51:37.781Z,7.80
2022-11-06T11:57:05.588Z,7.90
2022-11-06T12:02:25.245Z,8.00
2022-11-06T12:07:32.141Z,8.00
2022-11-06T12:12:35.864Z,8.10
2022-11-06T12:17:43.456Z,8.30
2022-11-06T12:22:49.712Z,8.60
2022-11-06T12:27:55.576Z,8.80
2022-11-06T12:33:05.711Z,8.70
2022-11-06T12:38:22.926Z,8.80
2022-11-06T12:43:34.901Z,8.90
2022-11-06T12:49:17.179Z,8.80
2022-11-06T12:54:39.986Z,8.70
2022-11-06T12:59:55.931Z,8.70
2022-11-06T13:05:05.485Z,8.60
2022-11-06T13:10:21.315Z,8.70
2022-11-06T13:15:31.724Z,8.60
2022-11-06T13:20:45.037Z,8.50
2022-11-06T13:25:59.119Z,8.50
2022-11-06T13:31:20.775Z,8.60
2022-11-06T13:36:34.470Z,8.40
2022-11-06T13:41:39.345Z,8.60
2022-11-06T13:46:52.750Z,8.60
2022-11-06T13:51:59.687Z,8.60
2022-11-06T13:57:31.790Z,8.70
2022-11-06T14:02:52.142Z,8.70
2022-11-06T14:07:56.384Z,8.50
2022-11-06T14:13:01.185Z,8.30
2022-11-06T14:18:07.823Z,8.30
2022-11-06T14:23:47.892Z,8.30
2022-11-06T14:28:52.684Z,8.20
2022-11-06T14:34:01.870Z,8.10
2022-11-06T14:39:11.589Z,7.90
2022-11-06T14:44:40.347Z,7.80
2022-11-06T14:49:50.056Z,7.80
2022-11-06T14:55:04.395Z,7.70
2022-11-06T15:00:16.965Z,7.60
2022-11-06T15:05:20.986Z,7.60
2022-11-06T15:10:49.163Z,7.60
2022-11-06T15:15:56.800Z,7.60
2022-11-06T15:21:04.029Z,7.60
2022-11-06T15:26:16.152Z,7.40
2022-11-06T15:31:23.019Z,7.10
2022-11-06T15:36:27.951Z,6.90
2022-11-06T15:41:31.389Z,6.60
2022-11-06T15:46:36.047Z,6.40
2022-11-06T15:51:41.055Z,6.20
2022-11-06T15:56:45.217Z,6.10
2022-11-06T16:01:50.824Z,6.00
2022-11-06T16:06:55.625Z,5.90
2022-11-06T16:12:00.281Z,5.80
2022-11-06T16:17:13.158Z,5.70
2022-11-06T16:22:19.070Z,5.80
2022-11-06T16:27:23.718Z,5.80
2022-11-06T16:32:30.924Z,5.80
2022-11-06T16:37:39.994Z,5.90
2022-11-06T16:43:02.493Z,5.90
2022-11-06T16:48:26.720Z,5.90
2022-11-06T16:53:32.636Z,5.90
2022-11-06T16:58:47.644Z,6.00
2022-11-06T17:03:57.463Z,6.00
2022-11-06T17:09:09.799Z,6.00
2022-11-06T17:14:19.968Z,6.10
2022-11-06T17:19:25.861Z,6.10
2022-11-06T17:24:37.655Z,6.10
2022-11-06T17:29:41.406Z,6.20
2022-11-06T17:34:46.044Z,6.20
2022-11-06T17:39:49.401Z,6.30
2022-11-06T17:44:52.780Z,6.30
2022-11-06T17:50:00.748Z,6.30
2022-11-06T17:55:04.197Z,6.30
2022-11-06T18:00:10.415Z,6.30
2022-11-06T18:05:24.457Z,6.30
2022-11-06T18:10:30.630Z,6.20
2022-11-06T18:15:35.413Z,6.20
2022-11-06T18:20:45.155Z,6.10
2022-11-06T18:25:55.595Z,6.10
2022-11-06T18:30:59.989Z,6.10
2022-11-06T18:36:06.419Z,6.10
2022-11-06T18:41:10.755Z,6.10
2022-11-06T18:46:16.313Z,6.20
2022-11-06T18:51:33.991Z,6.30
2022-11-06T18:56:39.009Z,6.40
2022-11-06T19:01:42.504Z,6.40
2022-11-06T19:06:47.264Z,6.50
2022-11-06T19:11:51.028Z,6.50
2022-11-06T19:16:54.286Z,6.50
2022-11-06T19:21:59.014Z,6.50
2022-11-06T19:27:02.303Z,6.50
2022-11-06T19:32:10.051Z,6.50
2022-11-06T19:37:15.027Z,6.50
2022-11-06T19:42:18.299Z,6.60
2022-11-06T19:47:21.694Z,6.60
2022-11-06T19:52:42.896Z,6.60
2022-11-06T19:57:47.591Z,6.70
2022-11-06T20:02:51.286Z,6.80
2022-11-06T20:07:56.192Z,6.90
2022-11-06T20:12:59.573Z,6.90
2022-11-06T20:18:02.952Z,6.90
2022-11-06T20:23:07.562Z,7.20
2022-11-06T20:28:10.864Z,7.30
2022-11-06T20:33:14.402Z,7.30
2022-11-06T20:38:19.121Z,7.20
2022-11-06T20:43:22.544Z,7.20
2022-11-06T20:48:26.091Z,7.40
2022-11-06T20:53:31.042Z,7.40
2022-11-06T20:58:34.956Z,7.60
2022-11-06T21:03:39.048Z,7.70
2022-11-06T21:08:44.765Z,7.90
2022-11-06T21:13:50.652Z,8.00
2022-11-06T21:18:54.788Z,8.20
2022-11-06T21:24:00.758Z,8.20
2022-11-06T21:29:04.809Z,8.30
2022-11-06T21:34:08.243Z,8.00
2022-11-06T21:39:16.084Z,7.70
2022-11-06T21:44:20.579Z,7.70
2022-11-06T21:49:24.055Z,7.80
2022-11-06T21:54:57.757Z,8.00
2022-11-06T22:00:01.993Z,8.10
2022-11-06T22:05:05.695Z,8.30
2022-11-06T22:10:11.584Z,8.50
2022-11-06T22:15:14.805Z,8.50
2022-11-06T22:20:18.127Z,8.50
2022-11-06T22:25:22.945Z,8.50
2022-11-06T22:30:26.161Z,8.60
2022-11-06T22:35:29.484Z,8.70
2022-11-06T22:40:34.106Z,8.90
2022-11-06T22:45:37.430Z,9.00
2022-11-06T22:50:41.120Z,9.20
2022-11-06T22:55:52.289Z,9.40
2022-11-06T23:00:57.249Z,9.30
2022-11-06T23:06:04.655Z,9.00
2022-11-06T23:11:11.032Z,8.80
2022-11-06T23:16:16.585Z,8.70
2022-11-06T23:21:20.424Z,8.70
2022-11-06T23:26:24.975Z,8.80
2022-11-06T23:31:36.740Z,8.90
2022-11-06T23:36:40.013Z,8.90
2022-11-06T23:41:45.958Z,8.80
2022-11-06T23:46:49.497Z,8.90
2022-11-06T23:51:52.965Z,8.90
2022-11-06T23:57:02.239Z,9.00
